Flight Track Log - Related Links

Times and Time Zones

All times are in EDT time to prevent confusion due to time zone crossing. See the RPA3284 flight status page for this flight to view local times or setup timezone preferences in your user account.

Time Position Orientation Groundspeed Altitude Reporting Facility
EDT Latitude Longitude Course Direction KTS MPH feet Rate Location/Type
Tue 04:02:26 PM 41.7339 -71.4186 57° Northeast 146 168 800  Level Boston Center
Tue 04:02:44 PM 41.7411 -71.4039 57° Northeast 146 168 1,700 2,222 Climbing Boston Center
Tue 04:03:47 PM 41.7619 -71.3297 69° East 212 244 3,800 1,899 Climbing Boston Center
Tue 04:04:03 PM 41.7531 -71.3042 115° Southeast 245 282 4,200 2,164 Climbing Boston Center
Tue 04:04:48 PM 41.7042 -71.2878 166° South 271 312 6,000 2,857 Climbing Boston Center
Tue 04:05:48 PM 41.6247 -71.2822 177° South 285 328 9,200 2,826 Climbing Boston Center
Tue 04:06:49 PM 41.5422 -71.2764 177° South 296 341 11,700 2,468 Climbing Boston Center
Tue 04:07:52 PM 41.4436 -71.2672 176° South 327 376 14,300 2,323 Climbing Boston Center
Tue 04:08:53 PM 41.3469 -71.2600 177° South 347 399 16,500 1,884 Climbing Boston Center
Tue 04:09:53 PM 41.2492 -71.2528 177° South 353 406 18,100 1,686 Climbing Boston Center
Tue 04:10:54 PM 41.1636 -71.2967 201° Southwest 346 398 19,900 1,694 Climbing Boston Center
Tue 04:11:57 PM 41.1183 -71.3986 240° Southwest 328 377 21,600 1,659 Climbing Boston Center
Tue 04:12:57 PM 41.0783 -71.5083 244° Southwest 330 380 23,300 1,587 Climbing Boston Center
Tue 04:13:58 PM 41.0378 -71.6264 246° West 340 391 24,800 1,328 Climbing Boston Center
Tue 04:14:59 PM 40.9872 -71.7317 238° Southwest 354 407 26,000 581 Climbing Boston Center
Tue 04:16:02 PM 40.9242 -71.8358 231° Southwest 364 419 26,000  Level Boston Center
Tue 04:17:02 PM 40.8528 -71.9564 232° Southwest 365 420 26,000  Level Boston Center
Tue 04:18:03 PM 40.7917 -72.0631 233° Southwest 364 419 26,000  Level Boston Center
Tue 04:19:06 PM 40.7242 -72.1775 232° Southwest 370 426 26,000  Level Boston Center
Tue 04:20:07 PM 40.6622 -72.2839 233° Southwest 369 425 26,000  Level Boston Center
Tue 04:21:07 PM 40.5981 -72.3889 231° Southwest 370 426 26,000  Level Boston Center
Tue 04:22:10 PM 40.5347 -72.4958 232° Southwest 371 427 26,000 -48 Level Boston Center
Tue 04:23:11 PM 40.4706 -72.6028 232° Southwest 374 430 25,900 -934 Descending Boston Center
Tue 04:24:12 PM 40.4083 -72.7089 232° Southwest 369 425 24,100 -1,835 Descending Boston Center
Tue 04:25:12 PM 40.3469 -72.8111 232° Southwest 359 413 22,200 -1,981 Descending Boston Center
Tue 04:25:58 PM 40.2925 -72.9017 232° Southwest 361 415 20,600 -1,245 Descending New York Center
Tue 04:26:58 PM 40.2344 -72.9950 231° Southwest 355 409 20,000 -300 Descending New York Center
Tue 04:27:58 PM 40.1742 -73.0936 231° Southwest 355 409 20,000  Level New York Center
Tue 04:28:58 PM 40.1139 -73.1892 231° Southwest 350 403 20,000  Level New York Center
Tue 04:29:58 PM 40.0556 -73.2875 232° Southwest 350 403 20,000  Level New York Center
Tue 04:30:58 PM 39.9972 -73.3831 231° Southwest 350 403 20,000  Level New York Center
Tue 04:31:58 PM 39.9433 -73.4703 231° Southwest 350 403 20,000  Level New York Center
Tue 04:32:58 PM 39.8806 -73.5678 230° Southwest 350 403 20,000  Level New York Center
Tue 04:33:58 PM 39.8219 -73.6656 232° Southwest 350 403 20,000  Level New York Center
Tue 04:34:58 PM 39.7611 -73.7631 231° Southwest 350 403 20,000 -350 Level New York Center
Tue 04:35:58 PM 39.7022 -73.8603 232° Southwest 350 403 19,300 -1,415 Descending New York Center
Tue 04:38:13 PM 39.5703 -74.0653 230° Southwest 337 388 15,400 -1,648 Descending Washington Center
Tue 04:39:11 PM 39.5258 -74.1603 239° Southwest 332 382 14,000 -706 Descending Washington Center
Tue 04:40:12 PM 39.5269 -74.2678 271° West 302 348 14,000  Level Washington Center
Tue 04:41:13 PM 39.5281 -74.3700 271° West 297 342 14,000 -496 Level Washington Center
Tue 04:42:13 PM 39.5311 -74.4694 272° West 292 336 13,000 -1,250 Descending Washington Center
Tue 04:43:13 PM 39.5300 -74.5772 269° West 287 330 11,500 -1,490 Descending Washington Center
Tue 04:44:46 PM 39.5333 -74.7333 272° West 266 306 9,200 -980 Descending Philadelphia TRACON
Tue 04:45:46 PM 39.5333 -74.8333 270° West 255 293 9,000 -600 Descending Philadelphia TRACON
Tue 04:46:46 PM 39.5333 -74.9167 270° West 249 287 8,000 -526 Descending Philadelphia TRACON
Tue 04:47:40 PM 39.5333 -74.9833 270° West 212 244 8,000 -947 Level Philadelphia TRACON
Tue 04:48:40 PM 39.6000 -75.0333 330° Northwest 238 274 6,200 -992 Descending Philadelphia TRACON
Tue 04:49:41 PM 39.6500 -75.0667 333° Northwest 202 232 6,000 -99 Descending Philadelphia TRACON
Tue 04:50:41 PM 39.7000 -75.0833 346° North 202 232 6,000  Level Philadelphia TRACON
Tue 04:51:41 PM 39.7667 -75.0833 360° North 204 235 6,000  Level Philadelphia TRACON
Tue 04:52:41 PM 39.8167 -75.0500 27° Northeast 214 246 6,000 -273 Level Philadelphia TRACON
Tue 04:53:53 PM 39.8333 -74.9667 75° East 212 244 5,400 -476 Descending Philadelphia TRACON
Tue 04:54:47 PM 39.8500 -74.9000 72° East 208 239 5,000 -211 Descending Philadelphia TRACON
Tue 04:55:47 PM 39.8667 -74.8500 67° East 207 238 5,000 -53 Level Philadelphia TRACON
Tue 04:56:41 PM 39.9167 -74.8500 360° North 206 237 4,900 -476 Descending Philadelphia TRACON
Tue 04:57:53 PM 39.9333 -74.9333 285° West 184 212 4,000 -524 Descending Philadelphia TRACON
Tue 04:58:47 PM 39.9167 -74.9833 247° West 171 197 3,800 -579 Descending Philadelphia TRACON
Tue 04:59:47 PM 39.9167 -75.0333 270° West 175 201 2,900 -900 Descending Philadelphia TRACON
Tue 05:00:47 PM 39.9000 -75.1000 252° West 149 171 2,000 -800 Descending Philadelphia TRACON
Tue 05:01:47 PM 39.9000 -75.1500 270° West 131 151 1,300 -700 Descending Philadelphia TRACON
Tue 05:02:47 PM 39.8833 -75.1833 237° Southwest 127 146 600 -700 Descending Philadelphia TRACON
Tue 05:04:00 PM 39.8667 -75.2333 282° West  Level FlightAware Approximate
Tue 05:11:00 PM 39.8722 -75.2409 282° West  Level Estimated

Login

Don't have an account? Register now (free) for customized features, flight alerts, and more!